createdAt,value
2018-11-11T00:00:05.836Z,29.37
2018-11-11T00:02:32.720Z,24.30
2018-11-11T00:04:59.600Z,24.63
2018-11-11T00:07:26.514Z,26.87
2018-11-11T00:09:53.378Z,22.23
2018-11-11T00:12:20.423Z,26.67
2018-11-11T00:14:47.345Z,21.60
2018-11-11T00:17:14.202Z,20.60
2018-11-11T00:19:41.137Z,20.73
2018-11-11T00:22:08.083Z,21.20
2018-11-11T00:24:35.334Z,23.47
2018-11-11T00:27:02.318Z,24.87
2018-11-11T00:29:29.238Z,27.63
2018-11-11T00:31:56.171Z,26.40
2018-11-11T00:34:23.118Z,21.23
2018-11-11T00:36:50.055Z,23.53
2018-11-11T00:39:16.922Z,23.57
2018-11-11T00:41:43.848Z,30.67
2018-11-11T00:44:10.813Z,23.40
2018-11-11T00:46:37.735Z,27.10
2018-11-11T00:49:05.239Z,32.77
2018-11-11T00:51:32.142Z,24.70
2018-11-11T00:53:59.078Z,25.23
2018-11-11T00:56:25.922Z,25.53
2018-11-11T00:58:52.818Z,20.73
2018-11-11T01:01:19.714Z,20.53
2018-11-11T01:03:46.658Z,20.33
2018-11-11T01:06:13.595Z,26.57
2018-11-11T01:08:40.454Z,27.13
2018-11-11T01:11:07.390Z,27.73
2018-11-11T01:13:34.228Z,31.30
2018-11-11T01:16:01.083Z,34.07
2018-11-11T01:18:28.019Z,30.47
2018-11-11T01:20:54.870Z,30.17
2018-11-11T01:23:21.847Z,35.33
2018-11-11T01:25:48.746Z,31.00
2018-11-11T01:28:15.615Z,32.73
2018-11-11T01:30:42.538Z,29.57
2018-11-11T01:33:09.478Z,28.50
2018-11-11T01:35:36.446Z,25.60
2018-11-11T01:38:03.362Z,23.63
2018-11-11T01:40:30.230Z,22.73
2018-11-11T01:42:57.159Z,21.77
2018-11-11T01:45:24.118Z,22.10
2018-11-11T01:47:51.050Z,18.03
2018-11-11T01:50:17.986Z,19.13
2018-11-11T01:52:44.845Z,54.77
2018-11-11T01:55:12.502Z,14.40
2018-11-11T01:57:39.530Z,17.50
2018-11-11T02:00:08.858Z,11.40
2018-11-11T02:02:36.063Z,12.70
2018-11-11T02:05:03.035Z,15.63
2018-11-11T02:07:29.881Z,18.23
2018-11-11T02:09:56.913Z,18.83
2018-11-11T02:12:23.769Z,14.50
2018-11-11T02:14:50.623Z,18.60
2018-11-11T02:17:17.558Z,21.60
2018-11-11T02:19:45.443Z,24.87
2018-11-11T02:22:12.642Z,26.80
2018-11-11T02:24:39.531Z,20.13
2018-11-11T02:27:06.582Z,18.57
2018-11-11T02:29:33.507Z,19.03
2018-11-11T02:32:00.380Z,20.43
2018-11-11T02:34:27.300Z,23.30
2018-11-11T02:36:54.254Z,19.60
2018-11-11T02:39:21.196Z,20.83
2018-11-11T02:41:48.144Z,25.80
2018-11-11T02:44:15.075Z,27.17
2018-11-11T02:46:41.938Z,23.70
2018-11-11T02:49:08.878Z,27.93
2018-11-11T02:51:36.011Z,26.10
2018-11-11T02:54:02.867Z,33.00
2018-11-11T02:56:29.806Z,30.35
2018-11-11T02:58:56.790Z,33.63
2018-11-11T03:01:23.698Z,33.90
2018-11-11T03:03:50.657Z,31.80
2018-11-11T03:06:17.596Z,25.00
2018-11-11T03:08:44.531Z,23.63
2018-11-11T03:11:11.475Z,26.13
2018-11-11T03:13:38.446Z,24.50
2018-11-11T03:16:05.378Z,20.80
2018-11-11T03:18:32.308Z,24.80
2018-11-11T03:20:59.271Z,26.50
2018-11-11T03:23:26.205Z,26.03
2018-11-11T03:25:53.136Z,23.27
2018-11-11T03:28:19.994Z,22.93
2018-11-11T03:30:46.975Z,18.43
2018-11-11T03:33:13.886Z,18.20
2018-11-11T03:35:40.830Z,23.93
2018-11-11T03:38:07.783Z,27.00
2018-11-11T03:40:34.703Z,21.90
2018-11-11T03:43:01.563Z,19.73
2018-11-11T03:45:28.499Z,22.33
2018-11-11T03:47:55.434Z,20.97
2018-11-11T03:50:22.291Z,20.80
2018-11-11T03:52:49.231Z,24.47
2018-11-11T03:55:16.257Z,19.13
2018-11-11T03:57:43.171Z,26.83
2018-11-11T04:00:11.426Z,21.90
2018-11-11T04:02:38.359Z,29.77
2018-11-11T04:05:05.736Z,20.03
2018-11-11T04:07:32.631Z,21.23
2018-11-11T04:09:59.518Z,23.50
2018-11-11T04:12:26.431Z,24.37
2018-11-11T04:14:53.466Z,34.73
2018-11-11T04:17:20.350Z,29.90
2018-11-11T04:19:47.258Z,29.10
2018-11-11T04:22:16.965Z,24.90
2018-11-11T04:24:43.854Z,31.73
2018-11-11T04:29:38.059Z,21.63
2018-11-11T04:32:04.984Z,29.37
2018-11-11T04:34:31.979Z,24.00
2018-11-11T04:36:58.843Z,17.53
2018-11-11T04:39:25.703Z,21.63
2018-11-11T04:41:52.627Z,26.97
2018-11-11T04:44:19.578Z,23.70
2018-11-11T04:46:46.519Z,23.73
2018-11-11T04:49:13.366Z,24.23
2018-11-11T04:51:40.315Z,27.93
2018-11-11T04:54:07.261Z,28.77
2018-11-11T04:56:34.239Z,24.37
2018-11-11T04:59:01.139Z,20.93
2018-11-11T05:01:28.111Z,21.17
2018-11-11T05:03:55.023Z,19.53
2018-11-11T05:06:21.874Z,20.43
2018-11-11T05:08:48.824Z,39.47
2018-11-11T05:11:15.767Z,21.70
2018-11-11T05:13:42.739Z,24.23
2018-11-11T05:16:09.570Z,22.33
2018-11-11T05:18:36.487Z,25.37
2018-11-11T05:21:03.338Z,27.50
2018-11-11T05:23:30.196Z,38.80
2018-11-11T05:25:57.155Z,29.43
2018-11-11T05:28:24.072Z,25.23
2018-11-11T05:30:51.056Z,28.77
2018-11-11T05:33:17.961Z,20.87
2018-11-11T05:35:44.923Z,25.80
2018-11-11T05:38:11.847Z,21.93
2018-11-11T05:40:38.836Z,21.83
2018-11-11T05:43:05.738Z,26.43
2018-11-11T05:45:32.682Z,31.13
2018-11-11T05:47:59.634Z,28.10
2018-11-11T05:50:26.629Z,38.60
2018-11-11T05:52:53.518Z,40.30
2018-11-11T05:55:20.370Z,38.80
2018-11-11T05:57:47.306Z,30.00
2018-11-11T06:00:15.553Z,28.53
2018-11-11T06:02:42.732Z,27.20
2018-11-11T06:05:10.907Z,33.13
2018-11-11T06:07:37.862Z,27.30
2018-11-11T06:10:06.003Z,22.20
2018-11-11T06:12:32.887Z,25.80
2018-11-11T06:14:59.819Z,22.50
2018-11-11T06:17:26.759Z,21.70
2018-11-11T06:19:53.703Z,21.63
2018-11-11T06:22:20.643Z,22.50
2018-11-11T06:24:47.728Z,18.30
2018-11-11T06:27:14.642Z,19.97
2018-11-11T06:29:41.621Z,18.03
2018-11-11T06:32:08.543Z,20.47
2018-11-11T06:34:35.567Z,13.97
2018-11-11T06:37:02.427Z,26.20
2018-11-11T06:39:29.374Z,20.50
2018-11-11T06:41:56.310Z,18.83
2018-11-11T06:44:23.255Z,23.47
2018-11-11T06:46:50.202Z,20.03
2018-11-11T06:49:17.135Z,16.93
2018-11-11T06:51:44.138Z,16.00
2018-11-11T06:54:11.044Z,17.37
2018-11-11T06:56:37.974Z,13.40
2018-11-11T06:59:04.987Z,12.00
2018-11-11T07:01:31.894Z,11.13
2018-11-11T07:04:00.872Z,13.50
2018-11-11T07:06:28.210Z,11.03
2018-11-11T07:08:55.178Z,12.10
2018-11-11T07:11:22.091Z,13.90
2018-11-11T07:13:49.040Z,14.93
2018-11-11T07:16:15.898Z,15.90
2018-11-11T07:18:43.858Z,14.23
2018-11-11T07:21:10.810Z,12.20
2018-11-11T07:23:37.799Z,15.60
2018-11-11T07:26:04.795Z,15.20
2018-11-11T07:28:31.739Z,13.57
2018-11-11T07:30:58.738Z,9.47
2018-11-11T07:33:26.170Z,9.47
2018-11-11T07:35:53.114Z,9.30
2018-11-11T07:38:20.046Z,9.87
2018-11-11T07:40:46.985Z,8.00
2018-11-11T07:43:13.915Z,8.80
2018-11-11T07:45:40.795Z,8.33
2018-11-11T07:48:07.707Z,8.87
2018-11-11T07:50:34.674Z,10.23
2018-11-11T07:53:01.601Z,8.80
2018-11-11T07:55:28.538Z,11.87
2018-11-11T07:57:55.535Z,11.23
2018-11-11T08:00:22.453Z,10.70
2018-11-11T08:02:49.437Z,11.23
2018-11-11T08:05:16.358Z,8.40
2018-11-11T08:07:43.281Z,10.90
2018-11-11T08:10:22.115Z,10.80
2018-11-11T08:12:49.074Z,7.13
2018-11-11T08:15:15.979Z,8.40
2018-11-11T08:17:42.926Z,9.77
2018-11-11T08:20:09.909Z,7.03
2018-11-11T08:22:36.819Z,9.50
2018-11-11T08:25:03.692Z,9.83
2018-11-11T08:27:30.647Z,9.10
2018-11-11T08:29:57.589Z,6.37
2018-11-11T08:32:24.576Z,8.40
2018-11-11T08:34:51.468Z,7.10
2018-11-11T08:37:18.420Z,7.77
2018-11-11T08:39:45.358Z,6.67
2018-11-11T08:42:12.295Z,5.17
2018-11-11T08:44:39.243Z,5.90
2018-11-11T08:47:06.246Z,6.30
2018-11-11T08:49:33.166Z,5.97
2018-11-11T08:52:00.075Z,5.63
2018-11-11T08:54:28.799Z,5.10
2018-11-11T08:56:55.720Z,5.90
2018-11-11T08:59:22.680Z,4.53
2018-11-11T09:01:50.631Z,3.53
2018-11-11T09:04:17.660Z,3.00
2018-11-11T09:06:45.579Z,3.70
2018-11-11T09:09:13.423Z,3.53
2018-11-11T09:11:40.657Z,3.37
2018-11-11T09:14:08.527Z,3.70
2018-11-11T09:16:35.476Z,3.50
2018-11-11T09:19:02.427Z,3.70
2018-11-11T09:21:31.416Z,3.57
2018-11-11T09:23:58.257Z,4.40
2018-11-11T09:26:25.207Z,6.80
2018-11-11T09:28:52.145Z,3.00
2018-11-11T09:31:19.087Z,2.70
2018-11-11T09:33:46.034Z,2.70
2018-11-11T09:36:12.984Z,1.73
2018-11-11T09:38:39.919Z,2.53
2018-11-11T09:41:07.670Z,1.77
2018-11-11T09:43:34.687Z,4.30
2018-11-11T09:46:01.567Z,2.00
2018-11-11T09:48:28.512Z,2.03
2018-11-11T09:50:55.463Z,3.23
2018-11-11T09:53:22.405Z,1.77
2018-11-11T09:55:50.205Z,2.73
2018-11-11T09:58:17.118Z,2.20
2018-11-11T10:00:44.602Z,2.17
2018-11-11T10:03:17.259Z,3.57
2018-11-11T10:06:04.382Z,1.87
2018-11-11T10:08:50.923Z,1.77
2018-11-11T10:11:30.226Z,1.43
2018-11-11T10:14:02.767Z,1.30
2018-11-11T10:16:34.249Z,1.93
2018-11-11T10:19:20.778Z,2.23
2018-11-11T10:22:07.300Z,2.37
2018-11-11T10:24:38.314Z,1.77
2018-11-11T10:27:13.934Z,2.70
2018-11-11T10:29:46.751Z,1.77
2018-11-11T10:32:30.639Z,1.83
2018-11-11T10:35:05.627Z,3.10
2018-11-11T10:37:38.188Z,2.70
2018-11-11T10:40:10.110Z,2.65
2018-11-11T10:42:46.075Z,2.40
2018-11-11T10:45:35.400Z,1.43
2018-11-11T10:48:06.575Z,3.90
2018-11-11T10:50:51.764Z,1.40
2018-11-11T10:53:18.707Z,1.97
2018-11-11T10:55:47.627Z,1.63
2018-11-11T10:58:14.600Z,1.77
2018-11-11T11:00:48.313Z,1.50
2018-11-11T11:03:35.223Z,2.37
2018-11-11T11:06:02.639Z,2.13
2018-11-11T11:08:29.677Z,3.07
2018-11-11T11:10:56.735Z,3.07
2018-11-11T11:13:25.199Z,3.23
2018-11-11T11:15:52.047Z,1.20
2018-11-11T11:18:18.975Z,2.87
2018-11-11T11:20:45.926Z,3.80
2018-11-11T11:23:12.875Z,2.10
2018-11-11T11:25:39.852Z,6.07
2018-11-11T11:28:06.771Z,1.60
2018-11-11T11:30:33.694Z,2.90
2018-11-11T11:33:00.556Z,3.17
2018-11-11T11:35:27.559Z,2.57
2018-11-11T11:37:54.495Z,4.10
2018-11-11T11:40:21.468Z,3.80
2018-11-11T11:42:48.328Z,2.10
2018-11-11T11:45:15.298Z,4.27
2018-11-11T11:47:42.432Z,7.97
2018-11-11T11:50:10.484Z,1.50
2018-11-11T11:52:37.487Z,5.00
2018-11-11T11:55:04.839Z,4.60
2018-11-11T11:57:31.745Z,7.13
2018-11-11T11:59:58.695Z,7.03
2018-11-11T12:02:25.635Z,2.60
2018-11-11T12:04:52.563Z,4.07
2018-11-11T12:07:19.560Z,3.23
2018-11-11T12:09:46.489Z,4.80
2018-11-11T12:12:13.412Z,5.37
2018-11-11T12:14:40.355Z,3.23
2018-11-11T12:17:07.345Z,3.93
2018-11-11T12:19:34.243Z,5.97
2018-11-11T12:22:01.179Z,3.13
2018-11-11T12:24:28.138Z,2.20
2018-11-11T12:26:55.071Z,1.97
2018-11-11T12:29:22.050Z,4.33
2018-11-11T12:31:48.969Z,2.50
2018-11-11T12:34:15.923Z,3.60
2018-11-11T12:36:42.869Z,5.67
2018-11-11T12:39:11.188Z,4.53
2018-11-11T12:41:37.979Z,6.33
2018-11-11T12:44:04.919Z,3.93
2018-11-11T12:46:31.905Z,6.83
2018-11-11T12:48:58.857Z,4.07
2018-11-11T12:51:28.051Z,1.90
2018-11-11T12:53:56.527Z,6.20
2018-11-11T12:56:24.317Z,1.63
2018-11-11T12:58:52.071Z,1.90
2018-11-11T13:01:24.959Z,8.63
2018-11-11T13:03:53.234Z,3.00
2018-11-11T13:06:21.008Z,3.43
2018-11-11T13:08:52.223Z,5.67
2018-11-11T13:11:20.648Z,2.63
2018-11-11T13:13:48.592Z,5.87
2018-11-11T13:16:16.683Z,4.03
2018-11-11T13:18:45.511Z,2.13
2018-11-11T13:21:15.041Z,2.77
2018-11-11T13:23:44.063Z,8.27
2018-11-11T13:26:12.629Z,2.73
2018-11-11T13:28:40.111Z,2.77
2018-11-11T13:31:09.185Z,3.85
2018-11-11T13:33:37.176Z,3.97
2018-11-11T13:36:06.327Z,2.30
2018-11-11T13:38:35.115Z,2.97
2018-11-11T13:41:05.055Z,6.93
2018-11-11T13:43:34.353Z,8.27
2018-11-11T13:46:02.345Z,4.00
2018-11-11T13:48:30.238Z,3.20
2018-11-11T13:50:58.773Z,5.70
2018-11-11T13:53:28.223Z,4.17
2018-11-11T13:55:56.423Z,2.80
2018-11-11T13:58:24.327Z,1.80
2018-11-11T14:00:52.555Z,3.97
2018-11-11T14:03:20.559Z,4.15
2018-11-11T14:05:49.423Z,3.77
2018-11-11T14:08:17.896Z,3.83
2018-11-11T14:10:47.331Z,5.03
2018-11-11T14:13:15.441Z,4.40
2018-11-11T14:15:43.343Z,5.13
2018-11-11T14:18:13.700Z,4.80
2018-11-11T14:20:42.234Z,4.07
2018-11-11T14:23:10.843Z,9.00
2018-11-11T14:25:43.953Z,3.27
2018-11-11T14:28:12.471Z,5.12
2018-11-11T14:30:40.666Z,5.67
2018-11-11T14:33:12.082Z,3.60
2018-11-11T14:35:41.455Z,6.23
2018-11-11T14:38:10.404Z,5.47
2018-11-11T14:40:38.343Z,4.80
2018-11-11T14:43:06.701Z,6.30
2018-11-11T14:45:34.589Z,6.63
2018-11-11T14:48:03.228Z,6.53
2018-11-11T14:50:30.519Z,4.40
2018-11-11T14:53:03.792Z,4.93
2018-11-11T14:55:36.199Z,7.67
2018-11-11T14:58:06.158Z,2.70
2018-11-11T15:00:34.834Z,3.47
2018-11-11T15:03:10.172Z,3.95
2018-11-11T15:05:39.002Z,3.10
2018-11-11T15:08:07.215Z,3.13
2018-11-11T15:10:35.050Z,3.57
2018-11-11T15:13:06.596Z,1.90
2018-11-11T15:15:35.167Z,2.20
2018-11-11T15:18:04.747Z,1.73
2018-11-11T15:20:34.386Z,2.30
2018-11-11T15:23:02.807Z,5.30
2018-11-11T15:25:30.795Z,6.83
2018-11-11T15:27:58.011Z,11.23
2018-11-11T15:30:30.984Z,3.23
2018-11-11T15:32:58.990Z,1.70
2018-11-11T15:35:27.854Z,2.50
2018-11-11T15:37:56.179Z,3.07
2018-11-11T15:40:25.861Z,2.77
2018-11-11T15:42:54.288Z,1.83
2018-11-11T15:45:26.191Z,1.37
2018-11-11T15:47:55.563Z,2.10
2018-11-11T15:50:26.428Z,1.47
2018-11-11T15:52:57.399Z,1.43
2018-11-11T15:55:26.710Z,3.00
2018-11-11T15:57:56.455Z,0.93
2018-11-11T16:00:33.403Z,5.77
2018-11-11T16:03:01.483Z,3.30
2018-11-11T16:05:29.927Z,2.50
2018-11-11T16:07:58.951Z,4.25
2018-11-11T16:10:30.296Z,4.20
2018-11-11T16:12:59.474Z,3.30
2018-11-11T16:15:29.650Z,3.80
2018-11-11T16:17:59.159Z,3.23
2018-11-11T16:20:30.420Z,3.30
2018-11-11T16:23:00.835Z,4.43
2018-11-11T16:25:30.145Z,2.63
2018-11-11T16:28:03.859Z,2.87
2018-11-11T16:30:33.957Z,3.57
2018-11-11T16:33:04.291Z,4.10
2018-11-11T16:35:40.758Z,3.63
2018-11-11T16:38:10.515Z,2.77
2018-11-11T16:40:40.705Z,3.53
2018-11-11T16:43:13.947Z,2.17
2018-11-11T16:45:47.503Z,2.93
2018-11-11T16:48:19.056Z,4.37
2018-11-11T16:50:49.287Z,4.33
2018-11-11T16:55:50.290Z,1.40
2018-11-11T16:58:21.800Z,1.93
2018-11-11T17:00:50.471Z,4.83
2018-11-11T17:03:20.814Z,6.20
2018-11-11T17:05:54.437Z,6.13
2018-11-11T17:08:21.368Z,4.93
2018-11-11T17:10:48.291Z,8.80
2018-11-11T17:13:17.098Z,6.77
2018-11-11T17:15:47.470Z,8.23
2018-11-11T17:18:17.899Z,6.60
2018-11-11T17:20:44.847Z,5.83
2018-11-11T17:23:11.736Z,5.77
2018-11-11T17:25:40.643Z,8.43
2018-11-11T17:28:07.684Z,3.73
2018-11-11T17:30:39.192Z,2.97
2018-11-11T17:33:06.304Z,2.60
2018-11-11T17:35:35.527Z,1.90
2018-11-11T17:38:06.061Z,1.20
2018-11-11T17:40:33.198Z,5.87
2018-11-11T17:43:00.694Z,5.57
2018-11-11T17:45:27.698Z,5.30
2018-11-11T17:47:58.555Z,4.37
2018-11-11T17:50:30.923Z,2.87
2018-11-11T17:53:02.353Z,1.93
2018-11-11T17:55:30.251Z,2.30
2018-11-11T17:58:01.059Z,2.83
2018-11-11T18:00:31.971Z,3.90
2018-11-11T18:03:01.739Z,3.53
2018-11-11T18:05:31.451Z,3.83
2018-11-11T18:08:00.343Z,2.73
2018-11-11T18:10:28.754Z,4.80
2018-11-11T18:12:56.319Z,3.93
2018-11-11T18:15:26.319Z,2.77
2018-11-11T18:17:53.913Z,3.00
2018-11-11T18:20:28.848Z,2.73
2018-11-11T18:22:56.816Z,4.30
2018-11-11T18:25:23.759Z,4.00
2018-11-11T18:27:51.908Z,5.17
2018-11-11T18:30:21.939Z,5.53
2018-11-11T18:32:51.822Z,3.87
2018-11-11T18:35:20.372Z,4.60
2018-11-11T18:37:48.092Z,3.67
2018-11-11T18:40:17.766Z,3.17
2018-11-11T18:42:46.414Z,4.20
2018-11-11T18:45:17.099Z,5.00
2018-11-11T18:47:45.567Z,6.60
2018-11-11T18:50:18.451Z,9.07
2018-11-11T18:52:45.876Z,4.67
2018-11-11T18:55:13.896Z,4.40
2018-11-11T18:57:42.240Z,6.97
2018-11-11T19:00:14.593Z,5.67
2018-11-11T19:02:44.568Z,5.60
2018-11-11T19:05:13.591Z,6.27
2018-11-11T19:07:42.801Z,5.53
2018-11-11T19:10:16.189Z,5.53
2018-11-11T19:12:55.918Z,6.80
2018-11-11T19:15:27.546Z,3.10
2018-11-11T19:17:55.203Z,3.67
2018-11-11T19:20:25.465Z,4.90
2018-11-11T19:22:53.092Z,4.63
2018-11-11T19:25:21.968Z,5.20
2018-11-11T19:27:51.746Z,5.17
2018-11-11T19:30:21.552Z,4.53
2018-11-11T19:32:49.389Z,4.40
2018-11-11T19:35:17.589Z,4.93
2018-11-11T19:37:47.592Z,5.00
2018-11-11T19:40:17.994Z,6.73
2018-11-11T19:42:45.530Z,5.83
2018-11-11T19:45:15.403Z,8.03
2018-11-11T19:47:44.075Z,5.20
2018-11-11T19:50:14.659Z,4.33
2018-11-11T19:52:46.234Z,6.12
2018-11-11T19:55:17.254Z,5.53
2018-11-11T19:57:46.598Z,5.47
2018-11-11T20:00:16.581Z,5.93
2018-11-11T20:02:45.196Z,11.10
2018-11-11T20:05:13.415Z,11.53
2018-11-11T20:07:41.529Z,9.80
2018-11-11T20:10:12.876Z,11.97
2018-11-11T20:12:40.193Z,7.67
2018-11-11T20:15:15.055Z,8.85
2018-11-11T20:17:50.798Z,8.07
2018-11-11T20:20:21.483Z,10.07
2018-11-11T20:22:48.996Z,7.67
2018-11-11T20:25:17.574Z,9.63
2018-11-11T20:27:45.052Z,6.50
2018-11-11T20:30:15.238Z,8.20
2018-11-11T20:32:42.237Z,10.95
2018-11-11T20:35:10.603Z,12.33
2018-11-11T20:37:38.423Z,11.83
2018-11-11T20:40:07.479Z,12.83
2018-11-11T20:42:34.367Z,10.57
2018-11-11T20:45:01.411Z,9.53
2018-11-11T20:47:28.354Z,10.10
2018-11-11T20:49:55.412Z,8.40
2018-11-11T20:52:22.268Z,9.00
2018-11-11T20:54:49.240Z,9.07
2018-11-11T20:57:16.131Z,7.07
2018-11-11T20:59:43.093Z,3.80
2018-11-11T21:02:10.019Z,4.90
2018-11-11T21:04:36.977Z,3.50
2018-11-11T21:07:05.986Z,4.40
2018-11-11T21:09:32.912Z,4.93
2018-11-11T21:11:59.847Z,5.40
2018-11-11T21:14:26.819Z,4.33
2018-11-11T21:16:53.735Z,4.27
2018-11-11T21:19:20.747Z,3.90
2018-11-11T21:21:47.675Z,4.80
2018-11-11T21:24:16.633Z,6.60
2018-11-11T21:26:43.578Z,6.90
2018-11-11T21:29:11.539Z,4.20
2018-11-11T21:31:38.478Z,4.23
2018-11-11T21:34:05.427Z,2.70
2018-11-11T21:36:32.375Z,4.53
2018-11-11T21:38:59.315Z,3.90
2018-11-11T21:41:26.258Z,7.23
2018-11-11T21:43:54.131Z,9.93
2018-11-11T21:46:20.983Z,6.07
2018-11-11T21:48:47.843Z,3.37
2018-11-11T21:51:14.863Z,5.50
2018-11-11T21:53:41.815Z,6.43
2018-11-11T21:56:09.082Z,6.03
2018-11-11T21:58:37.986Z,3.83
2018-11-11T22:01:05.252Z,4.07
2018-11-11T22:03:32.147Z,2.70
2018-11-11T22:06:00.213Z,4.62
2018-11-11T22:08:27.195Z,4.40
2018-11-11T22:10:54.180Z,3.60
2018-11-11T22:13:21.763Z,4.60
2018-11-11T22:15:48.929Z,3.72
2018-11-11T22:18:16.255Z,3.97
2018-11-11T22:20:43.203Z,5.10
2018-11-11T22:23:10.153Z,4.07
2018-11-11T22:25:37.103Z,7.10
2018-11-11T22:28:04.193Z,7.17
2018-11-11T22:30:30.895Z,5.60
2018-11-11T22:32:57.827Z,4.90
2018-11-11T22:35:24.775Z,3.67
2018-11-11T22:37:51.723Z,5.13
2018-11-11T22:40:18.667Z,4.27
2018-11-11T22:42:45.606Z,4.23
2018-11-11T22:45:13.778Z,3.73
2018-11-11T22:47:40.738Z,5.80
2018-11-11T22:50:10.327Z,4.00
2018-11-11T22:52:37.857Z,4.27
2018-11-11T22:55:05.031Z,4.63
2018-11-11T22:57:31.924Z,4.90
2018-11-11T22:59:58.884Z,5.50
2018-11-11T23:02:25.767Z,4.00
2018-11-11T23:04:53.148Z,3.40
2018-11-11T23:07:19.991Z,3.37
2018-11-11T23:09:48.848Z,6.43
2018-11-11T23:12:15.855Z,3.90
2018-11-11T23:14:42.762Z,3.57
2018-11-11T23:17:09.707Z,6.37
2018-11-11T23:19:36.637Z,4.60
2018-11-11T23:22:03.584Z,4.87
2018-11-11T23:24:30.576Z,6.93
2018-11-11T23:26:59.523Z,3.53
2018-11-11T23:29:27.395Z,3.93
2018-11-11T23:31:54.331Z,4.50
2018-11-11T23:34:21.184Z,5.30
2018-11-11T23:36:48.053Z,4.30
2018-11-11T23:39:14.979Z,4.77
2018-11-11T23:41:41.925Z,3.83
2018-11-11T23:44:09.260Z,5.00
2018-11-11T23:46:36.656Z,6.20
2018-11-11T23:49:03.669Z,6.00
2018-11-11T23:51:31.535Z,6.60
2018-11-11T23:53:58.466Z,4.70
2018-11-11T23:56:25.439Z,6.73
2018-11-11T23:58:53.456Z,5.53
